Time;durP1;ratioP1;P1;durP2;ratioP2;P2;SDS_P1;SDS_P2;PMS_P1;PMS_P2;Temp;Humidity;BMP_temperature;BMP_pressure;BME280_temperature;BME280_humidity;BME280_pressure;Samples;Min_cycle;Max_cycle;Signal;HPM_P1;HPM_P2
2021/08/11 00:06:27;;;;;;;1999.90;999.90;;;;;;;17.47;78.27;101245.66;15745648;28;20652;-63
2021/08/11 00:14:02;;;;;;;1999.90;999.90;;;;;;;17.43;79.29;101239.13;15729112;28;20041;-62
2021/08/11 00:21:36;;;;;;;1999.90;999.90;;;;;;;17.60;79.19;101243.53;15725760;28;20056;-64
2021/08/11 00:29:08;;;;;;;1999.90;999.90;;;;;;;17.70;78.63;101250.63;15687433;28;20136;-64
2021/08/11 00:36:41;;;;;;;1999.90;999.90;;;;;;;17.80;78.78;101248.03;15667958;28;20045;-64
2021/08/11 00:44:16;;;;;;;1999.90;999.90;;;;;;;17.59;78.60;101253.19;15666154;28;20044;-63
2021/08/11 00:51:54;;;;;;;1999.90;999.90;;;;;;;17.47;80.07;101250.47;15666627;28;20521;-62
2021/08/11 00:59:29;;;;;;;1999.90;999.90;;;;;;;17.70;78.55;101262.72;15667726;28;20406;-62
2021/08/11 01:07:06;;;;;;;1999.90;999.90;;;;;;;17.63;78.98;101276.66;15667885;28;20702;-63
2021/08/11 01:14:40;;;;;;;1999.90;999.90;;;;;;;17.34;79.60;101280.81;15651957;28;20053;-63
2021/08/11 01:22:27;;;;;;;1999.90;999.90;;;;;;;17.29;79.05;101281.88;15696236;28;20045;-63
2021/08/11 01:30:09;;;;;;;1999.90;999.90;;;;;;;17.22;78.96;101289.38;15759895;28;20477;-62
2021/08/11 01:37:50;;;;;;;1999.90;999.90;;;;;;;17.17;78.04;101282.00;15727723;28;20500;-64
2021/08/11 01:45:29;;;;;;;1999.90;999.90;;;;;;;17.16;77.67;101286.00;15726394;28;20467;-63
2021/08/11 01:53:07;;;;;;;1999.90;999.90;;;;;;;17.11;78.78;101294.75;15706370;28;20044;-62
2021/08/11 02:00:40;;;;;;;1999.90;999.90;;;;;;;17.16;78.80;101288.00;15705763;28;20071;-61
2021/08/11 02:08:16;;;;;;;1999.90;999.90;;;;;;;17.31;78.97;101287.19;15722675;28;20492;-63
2021/08/11 02:15:49;;;;;;;1999.90;999.90;;;;;;;17.52;78.42;101292.53;15722503;28;20043;-62
2021/08/11 02:23:25;;;;;;;1999.90;999.90;;;;;;;17.56;78.79;101291.41;15685363;28;20067;-63
2021/08/11 02:31:04;;;;;;;1999.90;999.90;;;;;;;17.60;78.84;101305.59;15667716;28;20064;-62
2021/08/11 02:38:41;;;;;;;1999.90;999.90;;;;;;;17.62;78.49;101306.06;15672416;28;20041;-62
2021/08/11 02:46:21;;;;;;;1999.90;999.90;;;;;;;17.51;78.98;101308.66;15672556;28;20037;-62
2021/08/11 02:53:56;;;;;;;1999.90;999.90;;;;;;;17.21;79.85;101316.75;15672532;28;20417;-64
2021/08/11 03:01:29;;;;;;;1999.90;999.90;;;;;;;17.50;78.99;101318.25;15656913;28;20079;-62
2021/08/11 03:09:06;;;;;;;1999.90;999.90;;;;;;;17.56;77.88;101314.00;15673558;28;20494;-64
2021/08/11 03:16:41;;;;;;;1999.90;999.90;;;;;;;17.36;77.50;101319.94;15674117;28;20120;-62
2021/08/11 03:24:14;;;;;;;1999.90;999.90;;;;;;;17.23;78.00;101316.38;15701497;28;20143;-62
2021/08/11 03:31:48;;;;;;;1999.90;999.90;;;;;;;16.94;78.71;101312.00;15759150;22;20044;-58
2021/08/11 03:39:21;;;;;;;1999.90;999.90;;;;;;;16.77;78.36;101306.69;15762740;28;20052;-59
2021/08/11 03:46:54;;;;;;;1999.90;999.90;;;;;;;16.56;79.13;101315.34;15731442;28;20036;-60
2021/08/11 03:54:31;;;;;;;1999.90;999.90;;;;;;;16.87;77.81;101323.88;15739887;28;20146;-60
2021/08/11 04:02:05;;;;;;;1999.90;999.90;;;;;;;16.89;77.72;101330.00;15739092;28;20083;-58
2021/08/11 04:09:38;;;;;;;1999.90;999.90;;;;;;;16.82;78.20;101329.81;15740001;28;20083;-59
2021/08/11 04:17:12;;;;;;;1999.90;999.90;;;;;;;16.77;78.09;101330.06;15739839;28;20040;-58
2021/08/11 04:24:51;;;;;;;1999.90;999.90;;;;;;;16.72;78.41;101348.06;15788009;28;20039;-60
2021/08/11 04:32:24;;;;;;;1999.90;999.90;;;;;;;16.80;77.52;101349.09;15801022;28;20043;-57
2021/08/11 04:39:58;;;;;;;1999.90;999.90;;;;;;;16.90;77.61;101354.19;15801211;28;20481;-59
2021/08/11 04:47:36;;;;;;;1999.90;999.90;;;;;;;16.97;77.77;101362.81;15800702;28;20619;-59
2021/08/11 04:55:16;;;;;;;1999.90;999.90;;;;;;;16.97;78.09;101371.28;15781683;28;20057;-60
2021/08/11 05:02:49;;;;;;;1999.90;999.90;;;;;;;16.55;79.11;101387.78;15799542;28;20115;-58
2021/08/11 05:10:24;;;;;;;1999.90;999.90;;;;;;;17.05;77.48;101383.59;15800050;28;20486;-57
2021/08/11 05:17:57;;;;;;;1999.90;999.90;;;;;;;17.43;78.02;101380.19;15799590;28;20403;-60
2021/08/11 05:25:30;;;;;;;1999.90;999.90;;;;;;;17.70;78.40;101401.03;15744697;28;20028;-60
2021/08/11 05:33:03;;;;;;;1999.90;999.90;;;;;;;17.91;77.33;101399.91;15735661;28;20043;-57
2021/08/11 05:40:37;;;;;;;1999.90;999.90;;;;;;;17.83;78.92;101407.41;15716353;28;20047;-57
2021/08/11 05:48:13;;;;;;;1999.90;999.90;;;;;;;17.77;79.03;101417.34;15734235;28;20119;-60
2021/08/11 05:55:49;;;;;;;1999.90;999.90;;;;;;;17.65;79.32;101423.06;15738229;28;20420;-60
2021/08/11 06:03:21;;;;;;;1999.90;999.90;;;;;;;18.15;78.63;101433.59;15767174;28;20560;-59
2021/08/11 06:11:03;;;;;;;1999.90;999.90;;;;;;;18.27;78.06;101449.59;15770432;28;20044;-59
2021/08/11 06:18:35;;;;;;;1999.90;999.90;;;;;;;18.35;78.28;101452.25;15747299;28;20481;-58
2021/08/11 06:26:10;;;;;;;1999.90;999.90;;;;;;;18.92;78.11;101453.50;15734388;28;20036;-57
2021/08/11 06:33:42;;;;;;;1999.90;999.90;;;;;;;19.04;77.97;101458.19;15809066;28;20054;-60
2021/08/11 06:41:16;;;;;;;1999.90;999.90;;;;;;;19.09;75.85;101465.56;15807748;28;20036;-59
2021/08/11 06:49:00;;;;;;;1999.90;999.90;;;;;;;19.48;76.44;101460.66;15789689;28;20538;-57
2021/08/11 06:56:36;;;;;;;1999.90;999.90;;;;;;;19.56;75.41;101468.13;15808176;28;20044;-58
2021/08/11 07:04:11;;;;;;;1999.90;999.90;;;;;;;19.84;73.79;101462.97;15769705;28;20044;-58
2021/08/11 07:11:45;;;;;;;1999.90;999.90;;;;;;;19.53;72.75;101468.84;15725842;28;20052;-59
2021/08/11 07:19:17;;;;;;;1999.90;999.90;;;;;;;20.24;73.48;101464.44;15725198;28;20063;-59
2021/08/11 07:26:51;;;;;;;1999.90;999.90;;;;;;;19.89;74.02;101482.47;15726776;28;20040;-56
2021/08/11 07:34:23;;;;;;;1999.90;999.90;;;;;;;20.39;72.87;101485.28;15742003;28;20056;-55
2021/08/11 07:41:57;;;;;;;1999.90;999.90;;;;;;;20.59;72.14;101503.84;15741135;28;20044;-56
2021/08/11 07:49:29;;;;;;;1999.90;999.90;;;;;;;20.69;71.20;101513.72;15722700;28;20055;-57
2021/08/11 07:57:03;;;;;;;1999.90;999.90;;;;;;;21.48;68.43;101509.91;15740108;28;20124;-55
2021/08/11 08:04:35;;;;;;;1999.90;999.90;;;;;;;21.95;67.27;101508.34;15782109;28;20396;-55
2021/08/11 08:12:10;;;;;;;1999.90;999.90;;;;;;;21.94;66.56;101513.19;15802096;28;20153;-59
2021/08/11 08:19:42;;;;;;;1999.90;999.90;;;;;;;22.93;63.98;101518.88;15801587;28;20139;-58
2021/08/11 08:27:19;;;;;;;1999.90;999.90;;;;;;;23.34;62.26;101521.47;15782177;28;20041;-60
2021/08/11 08:35:00;;;;;;;1999.90;999.90;;;;;;;22.71;64.68;101512.19;15778385;28;20131;-58
2021/08/11 08:42:34;;;;;;;1999.90;999.90;;;;;;;22.54;62.66;101524.28;15757227;28;20056;-58
2021/08/11 08:50:09;;;;;;;1999.90;999.90;;;;;;;22.22;63.33;101521.19;15751755;28;20045;-57
2021/08/11 08:57:49;;;;;;;1999.90;999.90;;;;;;;23.10;63.08;101531.53;15718513;28;20476;-58
2021/08/11 09:05:21;;;;;;;1999.90;999.90;;;;;;;23.17;60.68;101527.91;15750723;28;20052;-58
2021/08/11 09:12:58;;;;;;;1999.90;999.90;;;;;;;23.78;57.25;101534.66;15780862;28;20109;-57
2021/08/11 09:20:30;;;;;;;1999.90;999.90;;;;;;;24.02;57.12;101533.06;15798392;28;20040;-60
2021/08/11 09:28:17;;;;;;;1999.90;999.90;;;;;;;24.35;59.81;101541.22;15768088;22;20048;-63
2021/08/11 09:35:49;;;;;;;1999.90;999.90;;;;;;;24.92;55.00;101543.19;15750775;28;20412;-64
2021/08/11 09:43:33;;;;;;;1999.90;999.90;;;;;;;25.52;54.12;101539.28;15822566;28;20043;-64
2021/08/11 09:51:10;;;;;;;1999.90;999.90;;;;;;;25.90;50.86;101541.13;15794094;28;20059;-64
2021/08/11 09:58:46;;;;;;;1999.90;999.90;;;;;;;26.28;50.43;101540.44;15791692;28;20424;-62
2021/08/11 10:06:25;;;;;;;1999.90;999.90;;;;;;;25.82;49.21;101550.16;15810034;28;20048;-64
2021/08/11 10:13:58;;;;;;;1999.90;999.90;;;;;;;25.30;51.08;101550.81;15810916;28;20075;-64
2021/08/11 10:21:33;;;;;;;1999.90;999.90;;;;;;;26.38;48.78;101548.16;15810005;28;20040;-64
2021/08/11 10:29:10;;;;;;;1999.90;999.90;;;;;;;27.10;44.41;101545.41;15807439;28;20045;-64
2021/08/11 10:36:45;;;;;;;1999.90;999.90;;;;;;;27.05;46.00;101561.00;15807092;28;20123;-64
2021/08/11 10:44:23;;;;;;;1999.90;999.90;;;;;;;27.46;42.53;101562.94;15842098;28;20514;-64
2021/08/11 10:51:59;;;;;;;1999.90;999.90;;;;;;;27.97;39.88;101567.59;15858381;28;20028;-64
2021/08/11 10:59:46;;;;;;;1999.90;999.90;;;;;;;27.36;42.06;101581.91;15880557;28;20047;-64
2021/08/11 11:07:21;;;;;;;1999.90;999.90;;;;;;;28.77;39.35;101577.34;15880352;28;20055;-64
2021/08/11 11:15:04;;;;;;;1999.90;999.90;;;;;;;29.30;39.92;101581.25;15860634;28;20427;-64
2021/08/11 11:22:39;;;;;;;1999.90;999.90;;;;;;;27.61;41.99;101587.31;15879848;28;20047;-64
2021/08/11 11:30:14;;;;;;;1999.90;999.90;;;;;;;27.42;42.33;101579.38;15881034;28;20048;-64
2021/08/11 11:38:06;;;;;;;1999.90;999.90;;;;;;;28.42;40.20;101570.97;15880529;28;20052;-63
2021/08/11 11:45:46;;;;;;;1999.90;999.90;;;;;;;29.28;36.47;101561.59;15819145;28;20238;-64
2021/08/11 11:53:24;;;;;;;1999.90;999.90;;;;;;;29.54;37.45;101567.63;15800481;28;20361;-64
2021/08/11 12:01:02;;;;;;;1999.90;999.90;;;;;;;30.39;37.10;101559.88;15816515;28;20040;-64
2021/08/11 12:08:38;;;;;;;1999.90;999.90;;;;;;;30.51;37.64;101560.41;15815296;28;20044;-64
2021/08/11 12:16:13;;;;;;;1999.90;999.90;;;;;;;29.59;36.20;101552.72;15797532;28;20043;-60
2021/08/11 12:23:47;;;;;;;1999.90;999.90;;;;;;;31.73;36.62;101547.88;15814493;28;20059;-63
2021/08/11 12:31:24;;;;;;;1999.90;999.90;;;;;;;28.17;38.55;101551.28;15817680;28;20504;-63
2021/08/11 12:39:02;;;;;;;1999.90;999.90;;;;;;;29.50;38.06;101561.16;15827555;28;20494;-62
2021/08/11 12:46:47;;;;;;;1999.90;999.90;;;;;;;33.21;31.73;101549.00;15859310;28;20496;-62
2021/08/11 12:54:19;;;;;;;1999.90;999.90;;;;;;;34.52;30.41;101558.69;15877324;28;20325;-62
2021/08/11 13:01:56;;;;;;;1999.90;999.90;;;;;;;39.44;26.34;101551.44;15855496;28;20126;-62
2021/08/11 13:09:30;;;;;;;1999.90;999.90;;;;;;;35.38;30.21;101547.78;15874220;28;20105;-64
2021/08/11 13:17:05;;;;;;;1999.90;999.90;;;;;;;33.58;31.91;101544.28;15858133;28;20201;-62
2021/08/11 13:24:42;;;;;;;1999.90;999.90;;;;;;;34.58;32.17;101542.25;15857626;28;20047;-62
2021/08/11 13:32:16;;;;;;;1999.90;999.90;;;;;;;31.77;34.23;101527.59;15873840;28;20043;-62
2021/08/11 13:39:57;;;;;;;1999.90;999.90;;;;;;;29.03;40.86;101521.03;15836373;28;20106;-63
2021/08/11 13:47:31;;;;;;;1999.90;999.90;;;;;;;28.67;41.55;101521.72;15807721;28;20068;-62
2021/08/11 13:55:23;;;;;;;1999.90;999.90;;;;;;;27.94;42.81;101525.44;15808858;28;20044;-63
2021/08/11 14:03:07;;;;;;;1999.90;999.90;;;;;;;28.18;41.88;101518.47;15809586;28;20070;-63
2021/08/11 14:10:58;;;;;;;1999.90;999.90;;;;;;;27.69;43.96;101522.13;15789545;28;20036;-62
2021/08/11 14:18:45;;;;;;;1999.90;999.90;;;;;;;27.06;44.72;101507.38;15772339;28;20040;-63
2021/08/11 14:26:18;;;;;;;1999.90;999.90;;;;;;;27.04;45.50;101496.38;15813899;28;20055;-63
2021/08/11 14:33:53;;;;;;;1999.90;999.90;;;;;;;26.54;45.06;101505.47;15802983;28;20450;-62
2021/08/11 14:41:28;;;;;;;1999.90;999.90;;;;;;;26.83;44.90;101485.13;15832466;28;20040;-61
2021/08/11 14:49:03;;;;;;;1999.90;999.90;;;;;;;26.88;45.40;101493.25;15863298;28;20496;-61
2021/08/11 14:56:44;;;;;;;1999.90;999.90;;;;;;;26.61;45.58;101496.00;15881018;28;20515;-62
2021/08/11 15:04:17;;;;;;;1999.90;999.90;;;;;;;26.53;46.75;101498.13;15880493;28;20040;-64
2021/08/11 15:11:50;;;;;;;1999.90;999.90;;;;;;;25.82;48.06;101502.38;15862403;28;20074;-63
2021/08/11 15:19:28;;;;;;;1999.90;999.90;;;;;;;26.13;48.12;101483.34;15844107;28;20130;-63
2021/08/11 15:27:02;;;;;;;1999.90;999.90;;;;;;;26.27;46.62;101491.00;15876911;28;20035;-63
2021/08/11 15:34:36;;;;;;;1999.90;999.90;;;;;;;26.32;47.65;101493.41;15877754;28;20313;-63
2021/08/11 15:42:08;;;;;;;1999.90;999.90;;;;;;;26.17;45.78;101495.59;15844404;28;20452;-64
2021/08/11 15:49:42;;;;;;;;;;;;;;;26.17;46.90;101503.34;15819671;28;20062;-63
2021/08/11 15:57:14;;;;;;;1999.90;999.90;;;;;;;25.93;44.65;101496.59;15819911;28;19924;-63
2021/08/11 16:04:47;;;;;;;1999.90;999.90;;;;;;;25.84;45.57;101504.81;15817404;28;20052;-62
2021/08/11 16:12:20;;;;;;;1999.90;999.90;;;;;;;25.72;45.11;101493.88;15815659;28;20036;-62
2021/08/11 16:19:53;;;;;;;1999.90;999.90;;;;;;;25.79;45.89;101494.66;15779860;28;20036;-62
2021/08/11 16:27:25;;;;;;;1999.90;999.90;;;;;;;25.49;46.34;101497.28;15795768;28;20079;-62
2021/08/11 16:34:59;;;;;;;1999.90;999.90;;;;;;;25.55;47.00;101482.16;15801265;28;20429;-62
2021/08/11 16:42:31;;;;;;;1999.90;999.90;;;;;;;25.25;45.75;101491.28;15853315;28;20124;-62
2021/08/11 16:50:05;;;;;;;1999.90;999.90;;;;;;;25.23;46.18;101485.19;15877446;28;20454;-63
2021/08/11 16:57:38;;;;;;;1999.90;999.90;;;;;;;25.35;47.38;101501.03;15838296;28;20051;-63
2021/08/11 17:05:15;;;;;;;1999.90;999.90;;;;;;;25.06;46.88;101485.25;15873255;28;20054;-62
2021/08/11 17:12:47;;;;;;;1999.90;999.90;;;;;;;24.99;47.71;101483.19;15873148;28;20031;-63
2021/08/11 17:20:21;;;;;;;1999.90;999.90;;;;;;;25.00;49.00;101488.50;15854509;28;20530;-62
2021/08/11 17:27:53;;;;;;;1999.90;999.90;;;;;;;24.77;48.12;101491.03;15869647;28;20538;-62
2021/08/11 17:35:26;;;;;;;1999.90;999.90;;;;;;;24.83;49.26;101492.25;15853934;28;20039;-62
2021/08/11 17:42:59;;;;;;;1999.90;999.90;;;;;;;24.64;51.98;101492.69;15808212;28;20044;-63
2021/08/11 17:50:33;;;;;;;1999.90;999.90;;;;;;;24.59;50.76;101504.50;15791089;28;20119;-63
2021/08/11 17:58:06;;;;;;;1999.90;999.90;;;;;;;24.30;53.11;101487.44;15810208;28;20047;-66
2021/08/11 18:05:39;;;;;;;1999.90;999.90;;;;;;;24.17;53.43;101489.88;15786784;28;20043;-64
2021/08/11 18:13:11;;;;;;;1999.90;999.90;;;;;;;23.83;54.69;101494.34;15785865;28;20032;-65
2021/08/11 18:20:45;;;;;;;1999.90;999.90;;;;;;;23.68;55.26;101502.06;15803245;28;20044;-65
2021/08/11 18:28:17;;;;;;;1999.90;999.90;;;;;;;23.41;55.65;101510.09;15785265;28;20127;-63
2021/08/11 18:35:53;;;;;;;1999.90;999.90;;;;;;;23.20;56.26;101510.03;15803306;28;20040;-63
2021/08/11 18:43:25;;;;;;;1999.90;999.90;;;;;;;22.96;58.64;101522.94;15854199;28;20308;-63
2021/08/11 18:50:59;;;;;;;1999.90;999.90;;;;;;;22.67;60.29;101531.28;15868468;28;20064;-64
2021/08/11 18:58:31;;;;;;;1999.90;999.90;;;;;;;22.38;61.18;101524.56;15765821;28;20325;-63
2021/08/11 19:06:07;;;;;;;1999.90;999.90;;;;;;;22.24;62.27;101526.50;15801283;28;20076;-66
2021/08/11 19:13:39;;;;;;;1999.90;999.90;;;;;;;22.00;62.41;101530.72;15793022;28;20101;-65
2021/08/11 19:21:12;;;;;;;1999.90;999.90;;;;;;;21.83;63.31;101537.84;15798551;28;20102;-63
2021/08/11 19:28:45;;;;;;;1999.90;999.90;;;;;;;21.58;63.48;101540.44;15814471;28;20447;-63
2021/08/11 19:36:19;;;;;;;1999.90;999.90;;;;;;;21.44;64.26;101555.28;15775664;28;20040;-63
2021/08/11 19:43:51;;;;;;;1999.90;999.90;;;;;;;21.24;63.85;101556.59;15798683;28;20405;-63
2021/08/11 19:51:25;;;;;;;1999.90;999.90;;;;;;;21.13;64.22;101559.31;15791939;28;20040;-64
2021/08/11 19:58:59;;;;;;;1999.90;999.90;;;;;;;20.97;64.75;101565.19;15752008;28;20049;-64
2021/08/11 20:06:33;;;;;;;1999.90;999.90;;;;;;;20.73;65.87;101583.47;15747237;28;20508;-61
2021/08/11 20:14:05;;;;;;;1999.90;999.90;;;;;;;20.58;66.52;101570.28;15709307;28;20036;-64
2021/08/11 20:21:39;;;;;;;1999.90;999.90;;;;;;;20.51;67.09;101577.84;15742988;28;20196;-64
2021/08/11 20:29:11;;;;;;;1999.90;999.90;;;;;;;20.41;67.11;101579.25;15745550;28;20090;-63
2021/08/11 20:36:45;;;;;;;1999.90;999.90;;;;;;;20.19;67.55;101593.06;15750666;28;20048;-62
2021/08/11 20:44:20;;;;;;;1999.90;999.90;;;;;;;20.01;68.31;101591.94;15859241;28;20044;-63
2021/08/11 20:52:04;;;;;;;1999.90;999.90;;;;;;;19.94;68.88;101608.81;15846305;28;20048;-62
2021/08/11 20:59:36;;;;;;;1999.90;999.90;;;;;;;19.88;68.91;101611.09;15777986;28;20044;-63
2021/08/11 21:07:09;;;;;;;1999.90;999.90;;;;;;;19.73;69.65;101617.69;15812044;28;20048;-67
2021/08/11 21:14:42;;;;;;;1999.90;999.90;;;;;;;19.59;69.69;101618.25;15812248;28;20040;-65
2021/08/11 21:22:16;;;;;;;1999.90;999.90;;;;;;;19.54;70.02;101624.16;15811703;28;20036;-68
2021/08/11 21:29:48;;;;;;;1999.90;999.90;;;;;;;19.38;70.56;101620.56;15798967;22;20354;-54
2021/08/11 21:37:22;;;;;;;1999.90;999.90;;;;;;;19.24;71.40;101621.09;15787631;28;20047;-58
2021/08/11 21:44:57;;;;;;;1999.90;999.90;;;;;;;19.11;71.77;101621.59;15839915;28;20139;-58
2021/08/11 21:52:30;;;;;;;1999.90;999.90;;;;;;;19.10;71.35;101612.28;15859077;28;20368;-57
2021/08/11 22:00:04;;;;;;;1999.90;999.90;;;;;;;18.97;71.28;101610.78;15859465;28;20058;-60
2021/08/11 22:07:45;;;;;;;1999.90;999.90;;;;;;;18.87;71.56;101623.47;15859962;28;20070;-58
2021/08/11 22:15:17;;;;;;;1999.90;999.90;;;;;;;18.72;71.38;101625.13;15858934;28;20131;-58
2021/08/11 22:22:50;;;;;;;1999.90;999.90;;;;;;;18.64;71.90;101631.78;15860100;28;20039;-58
2021/08/11 22:30:25;;;;;;;1999.90;999.90;;;;;;;18.59;71.81;101622.75;15858007;28;20059;-60
2021/08/11 22:37:58;;;;;;;1999.90;999.90;;;;;;;18.45;72.18;101640.19;15859213;28;20051;-57
2021/08/11 22:45:31;;;;;;;1999.90;999.90;;;;;;;18.29;72.61;101628.84;15845548;28;20051;-58
2021/08/11 22:53:08;;;;;;;1999.90;999.90;;;;;;;18.13;73.03;101642.97;15871663;28;20440;-58
2021/08/11 23:00:40;;;;;;;1999.90;999.90;;;;;;;18.18;72.68;101639.88;15869839;28;20051;-61
2021/08/11 23:08:14;;;;;;;1999.90;999.90;;;;;;;18.09;72.59;101647.69;15857081;28;20490;-58
2021/08/11 23:15:46;;;;;;;1999.90;999.90;;;;;;;18.00;72.94;101649.03;15855264;28;20513;-58
2021/08/11 23:23:20;;;;;;;1999.90;999.90;;;;;;;17.85;73.04;101654.31;15868572;28;20036;-56
2021/08/11 23:30:52;;;;;;;1999.90;999.90;;;;;;;17.72;73.25;101652.72;15868163;28;20040;-59
2021/08/11 23:38:28;;;;;;;1999.90;999.90;;;;;;;17.65;73.55;101660.13;15868154;28;20044;-59
2021/08/11 23:46:03;;;;;;;1999.90;999.90;;;;;;;17.68;73.40;101660.22;15870392;28;20039;-58
2021/08/11 23:53:37;;;;;;;1999.90;999.90;;;;;;;17.50;73.46;101658.84;15849686;28;20480;-55
